sensor_id;sensor_type;location;lat;lon;timestamp;P1;durP1;ratioP1;P2;durP2;ratioP2
41263;SDS011;26998;48.714;9.414;2023-01-25T00:02:02;28.57;;;16.40;;
41263;SDS011;26998;48.714;9.414;2023-01-25T00:04:29;31.10;;;17.70;;
41263;SDS011;26998;48.714;9.414;2023-01-25T00:06:55;30.27;;;15.97;;
41263;SDS011;26998;48.714;9.414;2023-01-25T00:09:22;30.33;;;16.70;;
41263;SDS011;26998;48.714;9.414;2023-01-25T00:11:49;29.63;;;17.20;;
41263;SDS011;26998;48.714;9.414;2023-01-25T00:14:16;27.00;;;15.53;;
41263;SDS011;26998;48.714;9.414;2023-01-25T00:16:42;27.97;;;15.87;;
41263;SDS011;26998;48.714;9.414;2023-01-25T00:19:09;27.83;;;16.83;;
41263;SDS011;26998;48.714;9.414;2023-01-25T00:21:36;28.73;;;16.93;;
41263;SDS011;26998;48.714;9.414;2023-01-25T00:24:03;31.27;;;17.57;;
41263;SDS011;26998;48.714;9.414;2023-01-25T00:26:31;27.73;;;15.70;;
41263;SDS011;26998;48.714;9.414;2023-01-25T00:28:59;27.80;;;16.57;;
41263;SDS011;26998;48.714;9.414;2023-01-25T00:39:40;30.37;;;16.47;;
41263;SDS011;26998;48.714;9.414;2023-01-25T00:42:10;32.00;;;18.17;;
41263;SDS011;26998;48.714;9.414;2023-01-25T00:44:37;29.95;;;16.77;;
41263;SDS011;26998;48.714;9.414;2023-01-25T00:47:04;30.53;;;16.73;;
41263;SDS011;26998;48.714;9.414;2023-01-25T00:49:31;29.67;;;16.97;;
41263;SDS011;26998;48.714;9.414;2023-01-25T00:51:58;31.13;;;17.20;;
41263;SDS011;26998;48.714;9.414;2023-01-25T00:54:24;33.27;;;18.33;;
41263;SDS011;26998;48.714;9.414;2023-01-25T00:56:51;28.60;;;16.70;;
41263;SDS011;26998;48.714;9.414;2023-01-25T00:59:18;28.60;;;17.27;;
41263;SDS011;26998;48.714;9.414;2023-01-25T01:01:45;25.20;;;15.13;;
41263;SDS011;26998;48.714;9.414;2023-01-25T01:04:12;29.13;;;16.17;;
41263;SDS011;26998;48.714;9.414;2023-01-25T01:06:38;31.53;;;17.67;;
41263;SDS011;26998;48.714;9.414;2023-01-25T01:09:07;28.53;;;16.47;;
41263;SDS011;26998;48.714;9.414;2023-01-25T01:11:38;30.57;;;17.03;;
41263;SDS011;26998;48.714;9.414;2023-01-25T01:14:04;27.63;;;15.80;;
41263;SDS011;26998;48.714;9.414;2023-01-25T01:16:31;29.60;;;16.77;;
41263;SDS011;26998;48.714;9.414;2023-01-25T01:18:57;33.87;;;16.73;;
41263;SDS011;26998;48.714;9.414;2023-01-25T01:21:24;26.13;;;15.83;;
41263;SDS011;26998;48.714;9.414;2023-01-25T01:23:50;28.67;;;15.57;;
41263;SDS011;26998;48.714;9.414;2023-01-25T01:26:18;29.10;;;17.27;;
41263;SDS011;26998;48.714;9.414;2023-01-25T01:28:45;28.60;;;16.37;;
41263;SDS011;26998;48.714;9.414;2023-01-25T01:31:19;28.53;;;16.17;;
41263;SDS011;26998;48.714;9.414;2023-01-25T01:33:48;30.33;;;17.13;;
41263;SDS011;26998;48.714;9.414;2023-01-25T01:36:16;31.60;;;17.90;;
41263;SDS011;26998;48.714;9.414;2023-01-25T01:38:44;29.03;;;16.20;;
41263;SDS011;26998;48.714;9.414;2023-01-25T01:41:11;30.57;;;15.40;;
41263;SDS011;26998;48.714;9.414;2023-01-25T01:43:38;26.87;;;15.67;;
41263;SDS011;26998;48.714;9.414;2023-01-25T01:46:08;30.67;;;17.30;;
41263;SDS011;26998;48.714;9.414;2023-01-25T01:48:42;29.30;;;15.57;;
41263;SDS011;26998;48.714;9.414;2023-01-25T01:51:18;27.17;;;17.13;;
41263;SDS011;26998;48.714;9.414;2023-01-25T01:53:53;31.13;;;17.63;;
41263;SDS011;26998;48.714;9.414;2023-01-25T01:59:40;34.87;;;19.27;;
41263;SDS011;26998;48.714;9.414;2023-01-25T02:02:15;33.20;;;17.90;;
41263;SDS011;26998;48.714;9.414;2023-01-25T02:04:42;30.47;;;17.33;;
41263;SDS011;26998;48.714;9.414;2023-01-25T02:07:16;31.85;;;17.88;;
41263;SDS011;26998;48.714;9.414;2023-01-25T02:09:49;30.17;;;17.47;;
41263;SDS011;26998;48.714;9.414;2023-01-25T02:12:17;31.67;;;18.60;;
41263;SDS011;26998;48.714;9.414;2023-01-25T02:14:49;33.07;;;18.27;;
41263;SDS011;26998;48.714;9.414;2023-01-25T02:17:23;29.23;;;17.27;;
41263;SDS011;26998;48.714;9.414;2023-01-25T02:22:26;31.43;;;17.27;;
41263;SDS011;26998;48.714;9.414;2023-01-25T02:25:14;37.17;;;19.40;;
41263;SDS011;26998;48.714;9.414;2023-01-25T02:27:50;30.37;;;16.50;;
41263;SDS011;26998;48.714;9.414;2023-01-25T02:30:20;30.07;;;17.03;;
41263;SDS011;26998;48.714;9.414;2023-01-25T02:32:47;32.03;;;17.07;;
41263;SDS011;26998;48.714;9.414;2023-01-25T02:35:21;35.27;;;18.40;;
41263;SDS011;26998;48.714;9.414;2023-01-25T02:37:49;31.83;;;17.63;;
41263;SDS011;26998;48.714;9.414;2023-01-25T02:40:17;33.03;;;17.93;;
41263;SDS011;26998;48.714;9.414;2023-01-25T02:42:44;30.23;;;16.67;;
41263;SDS011;26998;48.714;9.414;2023-01-25T02:45:12;35.20;;;18.77;;
41263;SDS011;26998;48.714;9.414;2023-01-25T02:47:41;27.55;;;14.05;;
41263;SDS011;26998;48.714;9.414;2023-01-25T02:50:08;27.50;;;16.80;;
41263;SDS011;26998;48.714;9.414;2023-01-25T02:52:35;31.87;;;16.33;;
41263;SDS011;26998;48.714;9.414;2023-01-25T02:55:02;28.57;;;15.60;;
41263;SDS011;26998;48.714;9.414;2023-01-25T02:57:28;29.87;;;16.10;;
41263;SDS011;26998;48.714;9.414;2023-01-25T02:59:55;32.40;;;16.77;;
41263;SDS011;26998;48.714;9.414;2023-01-25T03:02:21;32.20;;;18.37;;
41263;SDS011;26998;48.714;9.414;2023-01-25T03:04:47;32.70;;;17.50;;
41263;SDS011;26998;48.714;9.414;2023-01-25T03:07:14;32.47;;;17.97;;
41263;SDS011;26998;48.714;9.414;2023-01-25T03:09:40;33.90;;;17.77;;
41263;SDS011;26998;48.714;9.414;2023-01-25T03:12:07;34.00;;;17.10;;
41263;SDS011;26998;48.714;9.414;2023-01-25T03:14:33;36.30;;;17.90;;
41263;SDS011;26998;48.714;9.414;2023-01-25T03:17:00;32.10;;;16.67;;
41263;SDS011;26998;48.714;9.414;2023-01-25T03:19:27;32.07;;;16.67;;
41263;SDS011;26998;48.714;9.414;2023-01-25T03:21:53;30.90;;;17.17;;
41263;SDS011;26998;48.714;9.414;2023-01-25T03:24:20;32.10;;;17.13;;
41263;SDS011;26998;48.714;9.414;2023-01-25T03:26:46;27.63;;;15.93;;
41263;SDS011;26998;48.714;9.414;2023-01-25T03:29:13;29.60;;;16.43;;
41263;SDS011;26998;48.714;9.414;2023-01-25T03:31:39;30.20;;;16.97;;
41263;SDS011;26998;48.714;9.414;2023-01-25T03:34:05;28.97;;;16.47;;
41263;SDS011;26998;48.714;9.414;2023-01-25T03:36:32;28.87;;;15.23;;
41263;SDS011;26998;48.714;9.414;2023-01-25T03:38:58;27.00;;;15.37;;
41263;SDS011;26998;48.714;9.414;2023-01-25T03:41:25;33.87;;;16.10;;
41263;SDS011;26998;48.714;9.414;2023-01-25T03:43:51;34.23;;;16.97;;
41263;SDS011;26998;48.714;9.414;2023-01-25T03:46:17;29.40;;;15.77;;
41263;SDS011;26998;48.714;9.414;2023-01-25T03:48:44;24.73;;;14.73;;
41263;SDS011;26998;48.714;9.414;2023-01-25T03:51:10;29.50;;;15.07;;
41263;SDS011;26998;48.714;9.414;2023-01-25T03:53:36;28.70;;;15.17;;
41263;SDS011;26998;48.714;9.414;2023-01-25T03:56:07;30.47;;;16.67;;
41263;SDS011;26998;48.714;9.414;2023-01-25T03:58:36;27.27;;;15.07;;
41263;SDS011;26998;48.714;9.414;2023-01-25T04:01:05;25.47;;;14.03;;
41263;SDS011;26998;48.714;9.414;2023-01-25T04:03:33;26.63;;;15.23;;
41263;SDS011;26998;48.714;9.414;2023-01-25T04:06:00;29.80;;;15.60;;
41263;SDS011;26998;48.714;9.414;2023-01-25T04:08:27;31.03;;;16.10;;
41263;SDS011;26998;48.714;9.414;2023-01-25T04:10:55;26.90;;;14.57;;
41263;SDS011;26998;48.714;9.414;2023-01-25T04:13:25;29.20;;;14.80;;
41263;SDS011;26998;48.714;9.414;2023-01-25T04:15:52;26.70;;;15.37;;
41263;SDS011;26998;48.714;9.414;2023-01-25T04:18:19;24.30;;;13.30;;
41263;SDS011;26998;48.714;9.414;2023-01-25T04:20:51;22.63;;;13.77;;
41263;SDS011;26998;48.714;9.414;2023-01-25T04:23:18;24.97;;;13.07;;
41263;SDS011;26998;48.714;9.414;2023-01-25T04:25:54;24.43;;;13.97;;
41263;SDS011;26998;48.714;9.414;2023-01-25T04:28:22;25.77;;;14.33;;
41263;SDS011;26998;48.714;9.414;2023-01-25T04:30:50;24.87;;;13.80;;
41263;SDS011;26998;48.714;9.414;2023-01-25T04:33:17;22.40;;;13.17;;
41263;SDS011;26998;48.714;9.414;2023-01-25T04:35:43;23.07;;;12.63;;
41263;SDS011;26998;48.714;9.414;2023-01-25T04:38:10;25.50;;;13.30;;
41263;SDS011;26998;48.714;9.414;2023-01-25T04:40:37;24.67;;;13.43;;
41263;SDS011;26998;48.714;9.414;2023-01-25T04:43:04;23.00;;;12.67;;
41263;SDS011;26998;48.714;9.414;2023-01-25T04:45:30;21.97;;;13.53;;
41263;SDS011;26998;48.714;9.414;2023-01-25T04:48:00;22.47;;;12.93;;
41263;SDS011;26998;48.714;9.414;2023-01-25T04:50:28;25.60;;;14.13;;
41263;SDS011;26998;48.714;9.414;2023-01-25T04:52:55;20.48;;;12.63;;
41263;SDS011;26998;48.714;9.414;2023-01-25T04:55:21;22.57;;;12.57;;
41263;SDS011;26998;48.714;9.414;2023-01-25T04:57:48;24.20;;;12.23;;
41263;SDS011;26998;48.714;9.414;2023-01-25T05:00:15;18.97;;;12.03;;
41263;SDS011;26998;48.714;9.414;2023-01-25T05:02:42;20.57;;;12.00;;
41263;SDS011;26998;48.714;9.414;2023-01-25T05:05:09;23.97;;;12.90;;
41263;SDS011;26998;48.714;9.414;2023-01-25T05:07:36;19.63;;;11.47;;
41263;SDS011;26998;48.714;9.414;2023-01-25T05:10:04;20.50;;;11.33;;
41263;SDS011;26998;48.714;9.414;2023-01-25T05:12:31;22.03;;;11.80;;
41263;SDS011;26998;48.714;9.414;2023-01-25T05:14:58;20.17;;;11.93;;
41263;SDS011;26998;48.714;9.414;2023-01-25T05:17:25;22.50;;;12.63;;
41263;SDS011;26998;48.714;9.414;2023-01-25T05:19:51;18.43;;;10.93;;
41263;SDS011;26998;48.714;9.414;2023-01-25T05:22:18;22.57;;;13.00;;
41263;SDS011;26998;48.714;9.414;2023-01-25T05:24:45;21.33;;;11.97;;
41263;SDS011;26998;48.714;9.414;2023-01-25T05:27:13;18.90;;;11.77;;
41263;SDS011;26998;48.714;9.414;2023-01-25T05:29:43;16.53;;;10.50;;
41263;SDS011;26998;48.714;9.414;2023-01-25T05:32:12;21.63;;;12.03;;
41263;SDS011;26998;48.714;9.414;2023-01-25T05:34:40;19.90;;;12.05;;
41263;SDS011;26998;48.714;9.414;2023-01-25T05:37:08;20.70;;;11.83;;
41263;SDS011;26998;48.714;9.414;2023-01-25T05:39:36;21.07;;;11.63;;
41263;SDS011;26998;48.714;9.414;2023-01-25T05:42:03;17.50;;;10.83;;
41263;SDS011;26998;48.714;9.414;2023-01-25T05:44:33;23.27;;;13.45;;
41263;SDS011;26998;48.714;9.414;2023-01-25T05:47:00;23.57;;;12.20;;
41263;SDS011;26998;48.714;9.414;2023-01-25T05:49:26;18.93;;;11.33;;
41263;SDS011;26998;48.714;9.414;2023-01-25T05:51:53;19.93;;;10.87;;
41263;SDS011;26998;48.714;9.414;2023-01-25T05:54:19;19.23;;;11.47;;
41263;SDS011;26998;48.714;9.414;2023-01-25T05:56:47;19.73;;;11.50;;
41263;SDS011;26998;48.714;9.414;2023-01-25T05:59:14;19.77;;;11.77;;
41263;SDS011;26998;48.714;9.414;2023-01-25T06:01:41;25.27;;;13.13;;
41263;SDS011;26998;48.714;9.414;2023-01-25T06:04:08;19.77;;;11.05;;
41263;SDS011;26998;48.714;9.414;2023-01-25T06:06:38;19.75;;;11.45;;
41263;SDS011;26998;48.714;9.414;2023-01-25T06:09:04;20.07;;;11.87;;
41263;SDS011;26998;48.714;9.414;2023-01-25T06:11:30;19.03;;;11.20;;
41263;SDS011;26998;48.714;9.414;2023-01-25T06:13:57;19.47;;;12.23;;
41263;SDS011;26998;48.714;9.414;2023-01-25T06:16:23;18.83;;;11.60;;
41263;SDS011;26998;48.714;9.414;2023-01-25T06:21:25;21.00;;;12.27;;
41263;SDS011;26998;48.714;9.414;2023-01-25T06:23:52;25.57;;;12.63;;
41263;SDS011;26998;48.714;9.414;2023-01-25T06:26:20;16.52;;;11.43;;
41263;SDS011;26998;48.714;9.414;2023-01-25T06:28:46;18.37;;;11.00;;
41263;SDS011;26998;48.714;9.414;2023-01-25T06:31:14;19.57;;;11.77;;
41263;SDS011;26998;48.714;9.414;2023-01-25T06:33:43;20.23;;;11.43;;
41263;SDS011;26998;48.714;9.414;2023-01-25T06:36:16;18.03;;;11.23;;
41263;SDS011;26998;48.714;9.414;2023-01-25T06:38:48;23.30;;;12.97;;
41263;SDS011;26998;48.714;9.414;2023-01-25T06:41:16;21.85;;;12.00;;
41263;SDS011;26998;48.714;9.414;2023-01-25T06:43:43;19.95;;;12.30;;
41263;SDS011;26998;48.714;9.414;2023-01-25T06:46:11;21.40;;;12.57;;
41263;SDS011;26998;48.714;9.414;2023-01-25T06:48:38;20.90;;;12.93;;
41263;SDS011;26998;48.714;9.414;2023-01-25T06:51:09;19.45;;;12.35;;
41263;SDS011;26998;48.714;9.414;2023-01-25T06:53:42;21.57;;;12.43;;
41263;SDS011;26998;48.714;9.414;2023-01-25T06:56:11;22.73;;;12.63;;
41263;SDS011;26998;48.714;9.414;2023-01-25T06:58:39;20.67;;;12.37;;
41263;SDS011;26998;48.714;9.414;2023-01-25T07:01:10;17.83;;;11.20;;
41263;SDS011;26998;48.714;9.414;2023-01-25T07:03:38;24.88;;;13.77;;
41263;SDS011;26998;48.714;9.414;2023-01-25T07:06:06;19.83;;;12.15;;
41263;SDS011;26998;48.714;9.414;2023-01-25T07:08:35;20.70;;;12.57;;
41263;SDS011;26998;48.714;9.414;2023-01-25T07:11:03;22.03;;;13.37;;
41263;SDS011;26998;48.714;9.414;2023-01-25T07:13:32;21.15;;;12.75;;
41263;SDS011;26998;48.714;9.414;2023-01-25T07:16:00;22.73;;;13.03;;
41263;SDS011;26998;48.714;9.414;2023-01-25T07:18:28;21.88;;;12.48;;
41263;SDS011;26998;48.714;9.414;2023-01-25T07:21:03;25.07;;;15.03;;
41263;SDS011;26998;48.714;9.414;2023-01-25T07:23:30;22.23;;;13.10;;
41263;SDS011;26998;48.714;9.414;2023-01-25T07:25:58;23.70;;;14.33;;
41263;SDS011;26998;48.714;9.414;2023-01-25T07:28:25;26.03;;;14.17;;
41263;SDS011;26998;48.714;9.414;2023-01-25T07:30:52;25.47;;;14.90;;
41263;SDS011;26998;48.714;9.414;2023-01-25T07:33:18;25.07;;;14.80;;
41263;SDS011;26998;48.714;9.414;2023-01-25T07:35:47;23.17;;;13.60;;
41263;SDS011;26998;48.714;9.414;2023-01-25T07:38:13;23.83;;;14.37;;
41263;SDS011;26998;48.714;9.414;2023-01-25T07:40:40;27.60;;;15.63;;
41263;SDS011;26998;48.714;9.414;2023-01-25T07:43:06;25.57;;;15.50;;
41263;SDS011;26998;48.714;9.414;2023-01-25T07:45:33;27.10;;;15.97;;
41263;SDS011;26998;48.714;9.414;2023-01-25T07:47:59;27.77;;;15.90;;
41263;SDS011;26998;48.714;9.414;2023-01-25T07:50:26;28.00;;;16.37;;
41263;SDS011;26998;48.714;9.414;2023-01-25T07:52:53;29.33;;;16.07;;
41263;SDS011;26998;48.714;9.414;2023-01-25T07:55:20;26.88;;;15.90;;
41263;SDS011;26998;48.714;9.414;2023-01-25T07:57:47;24.35;;;15.57;;
41263;SDS011;26998;48.714;9.414;2023-01-25T08:00:14;29.90;;;16.30;;
41263;SDS011;26998;48.714;9.414;2023-01-25T08:02:40;27.03;;;16.37;;
41263;SDS011;26998;48.714;9.414;2023-01-25T08:05:07;24.03;;;13.80;;
41263;SDS011;26998;48.714;9.414;2023-01-25T08:07:34;27.53;;;15.77;;
41263;SDS011;26998;48.714;9.414;2023-01-25T08:10:01;30.17;;;16.33;;
41263;SDS011;26998;48.714;9.414;2023-01-25T08:12:27;27.50;;;15.43;;
41263;SDS011;26998;48.714;9.414;2023-01-25T08:14:56;29.73;;;14.87;;
41263;SDS011;26998;48.714;9.414;2023-01-25T08:17:22;27.73;;;15.67;;
41263;SDS011;26998;48.714;9.414;2023-01-25T08:19:48;34.37;;;15.87;;
41263;SDS011;26998;48.714;9.414;2023-01-25T08:22:15;28.07;;;16.30;;
41263;SDS011;26998;48.714;9.414;2023-01-25T08:27:35;22.83;;;12.93;;
41263;SDS011;26998;48.714;9.414;2023-01-25T08:30:02;25.50;;;15.33;;
41263;SDS011;26998;48.714;9.414;2023-01-25T08:32:29;25.37;;;14.47;;
41263;SDS011;26998;48.714;9.414;2023-01-25T08:34:56;28.43;;;16.57;;
41263;SDS011;26998;48.714;9.414;2023-01-25T08:37:22;30.77;;;17.50;;
41263;SDS011;26998;48.714;9.414;2023-01-25T08:42:17;29.20;;;16.43;;
41263;SDS011;26998;48.714;9.414;2023-01-25T08:44:45;27.13;;;15.00;;
41263;SDS011;26998;48.714;9.414;2023-01-25T08:47:12;30.17;;;17.17;;
41263;SDS011;26998;48.714;9.414;2023-01-25T08:49:39;25.37;;;14.37;;
41263;SDS011;26998;48.714;9.414;2023-01-25T08:52:06;29.57;;;16.63;;
41263;SDS011;26998;48.714;9.414;2023-01-25T08:54:34;28.57;;;15.57;;
41263;SDS011;26998;48.714;9.414;2023-01-25T08:57:00;31.73;;;17.37;;
41263;SDS011;26998;48.714;9.414;2023-01-25T08:59:27;28.30;;;15.13;;
41263;SDS011;26998;48.714;9.414;2023-01-25T09:01:53;27.87;;;15.77;;
41263;SDS011;26998;48.714;9.414;2023-01-25T09:04:20;26.67;;;14.57;;
41263;SDS011;26998;48.714;9.414;2023-01-25T09:06:46;24.60;;;14.00;;
41263;SDS011;26998;48.714;9.414;2023-01-25T09:09:13;26.13;;;14.70;;
41263;SDS011;26998;48.714;9.414;2023-01-25T09:11:40;31.07;;;15.30;;
41263;SDS011;26998;48.714;9.414;2023-01-25T09:14:07;28.90;;;16.20;;
41263;SDS011;26998;48.714;9.414;2023-01-25T09:16:35;26.53;;;15.67;;
41263;SDS011;26998;48.714;9.414;2023-01-25T09:19:03;35.00;;;18.37;;
41263;SDS011;26998;48.714;9.414;2023-01-25T09:21:32;36.00;;;18.60;;
41263;SDS011;26998;48.714;9.414;2023-01-25T09:23:59;28.13;;;15.47;;
41263;SDS011;26998;48.714;9.414;2023-01-25T09:26:33;33.73;;;17.63;;
41263;SDS011;26998;48.714;9.414;2023-01-25T09:29:02;31.60;;;17.30;;
41263;SDS011;26998;48.714;9.414;2023-01-25T09:31:31;29.00;;;16.42;;
41263;SDS011;26998;48.714;9.414;2023-01-25T09:34:00;30.43;;;16.70;;
41263;SDS011;26998;48.714;9.414;2023-01-25T09:36:27;30.57;;;16.53;;
41263;SDS011;26998;48.714;9.414;2023-01-25T09:38:56;28.53;;;15.80;;
41263;SDS011;26998;48.714;9.414;2023-01-25T09:44:36;28.20;;;15.27;;
41263;SDS011;26998;48.714;9.414;2023-01-25T09:47:15;29.07;;;15.90;;
41263;SDS011;26998;48.714;9.414;2023-01-25T09:50:10;26.93;;;15.57;;
41263;SDS011;26998;48.714;9.414;2023-01-25T09:58:26;28.10;;;16.37;;
41263;SDS011;26998;48.714;9.414;2023-01-25T10:04:04;29.13;;;15.60;;
41263;SDS011;26998;48.714;9.414;2023-01-25T10:06:40;26.83;;;15.43;;
41263;SDS011;26998;48.714;9.414;2023-01-25T10:09:29;27.50;;;15.87;;
41263;SDS011;26998;48.714;9.414;2023-01-25T10:12:10;28.70;;;15.30;;
41263;SDS011;26998;48.714;9.414;2023-01-25T10:14:41;29.10;;;15.73;;
41263;SDS011;26998;48.714;9.414;2023-01-25T10:17:17;29.25;;;15.88;;
41263;SDS011;26998;48.714;9.414;2023-01-25T10:22:34;27.23;;;15.87;;
41263;SDS011;26998;48.714;9.414;2023-01-25T10:30:27;31.70;;;17.27;;
41263;SDS011;26998;48.714;9.414;2023-01-25T10:33:14;28.47;;;16.07;;
41263;SDS011;26998;48.714;9.414;2023-01-25T10:35:44;28.27;;;15.97;;
41263;SDS011;26998;48.714;9.414;2023-01-25T10:38:22;28.63;;;15.98;;
41263;SDS011;26998;48.714;9.414;2023-01-25T10:40:59;25.13;;;14.83;;
41263;SDS011;26998;48.714;9.414;2023-01-25T10:43:34;29.70;;;16.00;;
41263;SDS011;26998;48.714;9.414;2023-01-25T10:46:01;29.23;;;16.03;;
41263;SDS011;26998;48.714;9.414;2023-01-25T10:48:28;27.63;;;16.50;;
41263;SDS011;26998;48.714;9.414;2023-01-25T10:50:59;30.03;;;17.27;;
41263;SDS011;26998;48.714;9.414;2023-01-25T10:53:35;33.40;;;18.60;;
41263;SDS011;26998;48.714;9.414;2023-01-25T10:58:37;27.87;;;15.87;;
41263;SDS011;26998;48.714;9.414;2023-01-25T11:01:05;28.40;;;15.73;;
41263;SDS011;26998;48.714;9.414;2023-01-25T11:03:38;30.23;;;16.17;;
41263;SDS011;26998;48.714;9.414;2023-01-25T11:06:07;26.87;;;15.50;;
41263;SDS011;26998;48.714;9.414;2023-01-25T11:08:38;26.60;;;15.43;;
41263;SDS011;26998;48.714;9.414;2023-01-25T11:14:00;22.52;;;13.45;;
41263;SDS011;26998;48.714;9.414;2023-01-25T11:16:40;28.20;;;15.83;;
41263;SDS011;26998;48.714;9.414;2023-01-25T11:19:23;31.50;;;16.15;;
41263;SDS011;26998;48.714;9.414;2023-01-25T11:21:50;31.00;;;15.83;;
41263;SDS011;26998;48.714;9.414;2023-01-25T11:24:18;28.50;;;16.40;;
41263;SDS011;26998;48.714;9.414;2023-01-25T11:26:45;27.53;;;16.17;;
41263;SDS011;26998;48.714;9.414;2023-01-25T11:29:19;26.07;;;14.93;;
41263;SDS011;26998;48.714;9.414;2023-01-25T11:31:48;29.77;;;15.47;;
41263;SDS011;26998;48.714;9.414;2023-01-25T11:34:23;24.35;;;14.35;;
41263;SDS011;26998;48.714;9.414;2023-01-25T11:45:28;27.37;;;16.00;;
41263;SDS011;26998;48.714;9.414;2023-01-25T11:51:26;26.80;;;14.83;;
41263;SDS011;26998;48.714;9.414;2023-01-25T11:56:41;27.13;;;14.67;;
41263;SDS011;26998;48.714;9.414;2023-01-25T11:59:26;29.97;;;17.53;;
41263;SDS011;26998;48.714;9.414;2023-01-25T12:16:11;25.30;;;14.80;;
41263;SDS011;26998;48.714;9.414;2023-01-25T12:18:49;25.37;;;14.87;;
41263;SDS011;26998;48.714;9.414;2023-01-25T12:21:37;27.60;;;16.43;;
41263;SDS011;26998;48.714;9.414;2023-01-25T12:24:36;28.33;;;15.77;;
41263;SDS011;26998;48.714;9.414;2023-01-25T12:27:25;30.30;;;15.10;;
41263;SDS011;26998;48.714;9.414;2023-01-25T12:30:21;29.38;;;16.23;;
41263;SDS011;26998;48.714;9.414;2023-01-25T12:32:57;30.67;;;17.43;;
41263;SDS011;26998;48.714;9.414;2023-01-25T12:39:04;31.88;;;17.02;;
41263;SDS011;26998;48.714;9.414;2023-01-25T12:41:54;39.97;;;18.50;;
41263;SDS011;26998;48.714;9.414;2023-01-25T12:44:29;32.05;;;17.45;;
41263;SDS011;26998;48.714;9.414;2023-01-25T12:47:06;49.10;;;18.00;;
41263;SDS011;26998;48.714;9.414;2023-01-25T12:52:18;27.17;;;16.43;;
41263;SDS011;26998;48.714;9.414;2023-01-25T12:54:52;30.93;;;16.53;;
41263;SDS011;26998;48.714;9.414;2023-01-25T13:00:02;27.63;;;15.77;;
41263;SDS011;26998;48.714;9.414;2023-01-25T13:02:43;30.47;;;16.10;;
41263;SDS011;26998;48.714;9.414;2023-01-25T13:08:16;38.10;;;17.87;;
41263;SDS011;26998;48.714;9.414;2023-01-25T13:11:40;34.47;;;17.20;;
41263;SDS011;26998;48.714;9.414;2023-01-25T13:14:28;32.27;;;16.47;;
41263;SDS011;26998;48.714;9.414;2023-01-25T13:20:01;27.30;;;15.00;;
41263;SDS011;26998;48.714;9.414;2023-01-25T13:27:42;26.57;;;13.43;;
41263;SDS011;26998;48.714;9.414;2023-01-25T13:41:00;32.67;;;14.57;;
41263;SDS011;26998;48.714;9.414;2023-01-25T13:44:07;29.73;;;15.20;;
41263;SDS011;26998;48.714;9.414;2023-01-25T13:46:40;34.63;;;16.27;;
41263;SDS011;26998;48.714;9.414;2023-01-25T13:49:12;35.20;;;14.17;;
41263;SDS011;26998;48.714;9.414;2023-01-25T13:51:46;28.70;;;14.77;;
41263;SDS011;26998;48.714;9.414;2023-01-25T13:54:14;25.53;;;14.00;;
41263;SDS011;26998;48.714;9.414;2023-01-25T13:56:41;32.85;;;15.38;;
41263;SDS011;26998;48.714;9.414;2023-01-25T13:59:24;29.83;;;15.60;;
41263;SDS011;26998;48.714;9.414;2023-01-25T14:01:52;29.77;;;14.60;;
41263;SDS011;26998;48.714;9.414;2023-01-25T14:04:19;30.70;;;15.40;;
41263;SDS011;26998;48.714;9.414;2023-01-25T14:06:46;33.17;;;16.07;;
41263;SDS011;26998;48.714;9.414;2023-01-25T14:09:16;29.77;;;15.17;;
41263;SDS011;26998;48.714;9.414;2023-01-25T14:11:52;27.07;;;15.20;;
41263;SDS011;26998;48.714;9.414;2023-01-25T14:17:16;25.52;;;14.43;;
41263;SDS011;26998;48.714;9.414;2023-01-25T14:19:47;29.53;;;14.87;;
41263;SDS011;26998;48.714;9.414;2023-01-25T14:32:43;27.90;;;13.30;;
41263;SDS011;26998;48.714;9.414;2023-01-25T14:41:13;23.00;;;12.63;;
41263;SDS011;26998;48.714;9.414;2023-01-25T14:43:50;26.80;;;14.53;;
41263;SDS011;26998;48.714;9.414;2023-01-25T14:46:20;24.93;;;13.33;;
41263;SDS011;26998;48.714;9.414;2023-01-25T14:48:50;23.10;;;11.53;;
41263;SDS011;26998;48.714;9.414;2023-01-25T14:51:30;22.93;;;12.37;;
41263;SDS011;26998;48.714;9.414;2023-01-25T14:54:02;24.10;;;13.03;;
41263;SDS011;26998;48.714;9.414;2023-01-25T14:59:00;22.97;;;12.97;;
41263;SDS011;26998;48.714;9.414;2023-01-25T15:01:32;24.80;;;12.43;;
41263;SDS011;26998;48.714;9.414;2023-01-25T15:04:07;26.13;;;13.33;;
41263;SDS011;26998;48.714;9.414;2023-01-25T15:06:46;19.97;;;12.17;;
41263;SDS011;26998;48.714;9.414;2023-01-25T15:14:47;23.27;;;12.47;;
41263;SDS011;26998;48.714;9.414;2023-01-25T15:20:24;28.37;;;14.40;;
41263;SDS011;26998;48.714;9.414;2023-01-25T15:22:54;23.13;;;12.60;;
41263;SDS011;26998;48.714;9.414;2023-01-25T15:25:22;25.53;;;13.63;;
41263;SDS011;26998;48.714;9.414;2023-01-25T15:27:49;25.00;;;13.77;;
41263;SDS011;26998;48.714;9.414;2023-01-25T15:30:16;21.20;;;13.77;;
41263;SDS011;26998;48.714;9.414;2023-01-25T15:32:44;22.83;;;12.80;;
41263;SDS011;26998;48.714;9.414;2023-01-25T15:35:12;22.53;;;12.90;;
41263;SDS011;26998;48.714;9.414;2023-01-25T15:37:40;25.93;;;13.73;;
41263;SDS011;26998;48.714;9.414;2023-01-25T15:40:07;29.07;;;13.07;;
41263;SDS011;26998;48.714;9.414;2023-01-25T15:42:34;27.87;;;13.70;;
41263;SDS011;26998;48.714;9.414;2023-01-25T15:45:01;28.03;;;13.83;;
41263;SDS011;26998;48.714;9.414;2023-01-25T15:47:28;26.40;;;13.57;;
41263;SDS011;26998;48.714;9.414;2023-01-25T15:49:57;25.27;;;13.43;;
41263;SDS011;26998;48.714;9.414;2023-01-25T15:52:24;27.17;;;14.00;;
41263;SDS011;26998;48.714;9.414;2023-01-25T15:54:51;21.27;;;11.57;;
41263;SDS011;26998;48.714;9.414;2023-01-25T15:57:28;22.23;;;12.43;;
41263;SDS011;26998;48.714;9.414;2023-01-25T15:59:57;20.58;;;11.80;;
41263;SDS011;26998;48.714;9.414;2023-01-25T16:02:27;19.08;;;10.18;;
41263;SDS011;26998;48.714;9.414;2023-01-25T16:04:54;16.53;;;9.90;;
41263;SDS011;26998;48.714;9.414;2023-01-25T16:07:23;17.43;;;10.13;;
41263;SDS011;26998;48.714;9.414;2023-01-25T16:09:52;18.08;;;10.65;;
41263;SDS011;26998;48.714;9.414;2023-01-25T16:12:20;24.23;;;11.73;;
41263;SDS011;26998;48.714;9.414;2023-01-25T16:14:46;19.73;;;9.87;;
41263;SDS011;26998;48.714;9.414;2023-01-25T16:17:17;17.90;;;10.40;;
41263;SDS011;26998;48.714;9.414;2023-01-25T16:19:45;21.10;;;10.50;;
41263;SDS011;26998;48.714;9.414;2023-01-25T16:22:15;19.07;;;9.93;;
41263;SDS011;26998;48.714;9.414;2023-01-25T16:27:16;18.87;;;9.40;;
41263;SDS011;26998;48.714;9.414;2023-01-25T16:29:47;20.37;;;10.23;;
41263;SDS011;26998;48.714;9.414;2023-01-25T16:32:13;18.77;;;10.90;;
41263;SDS011;26998;48.714;9.414;2023-01-25T16:34:40;19.23;;;10.10;;
41263;SDS011;26998;48.714;9.414;2023-01-25T16:37:10;21.67;;;11.07;;
41263;SDS011;26998;48.714;9.414;2023-01-25T16:39:40;18.60;;;10.53;;
41263;SDS011;26998;48.714;9.414;2023-01-25T16:42:10;21.00;;;10.80;;
41263;SDS011;26998;48.714;9.414;2023-01-25T16:44:37;16.75;;;10.15;;
41263;SDS011;26998;48.714;9.414;2023-01-25T16:47:04;19.37;;;10.20;;
41263;SDS011;26998;48.714;9.414;2023-01-25T16:49:31;20.17;;;11.70;;
41263;SDS011;26998;48.714;9.414;2023-01-25T16:51:58;18.03;;;10.43;;
41263;SDS011;26998;48.714;9.414;2023-01-25T16:54:27;19.33;;;10.67;;
41263;SDS011;26998;48.714;9.414;2023-01-25T16:56:54;20.07;;;11.23;;